Berenda, California
Current Conditions -  °F | °C
As of 5:53 PM on Friday 24 Oct 2014 (Local Time) from KMAE Reporting Station
Clear Clear  
Wind Chill: 81°   Ceiling: Unl
Heat Index: 81°   Visibility: 10mi
Dew Point: 42°   Wind: 6mph
Humidity: 25%   Direction: 150°SSE
Pressure: 29.85"   Gusts: NA
Location:  36.9046°N, 120.172°W
Report Text: KMAE 250053Z AUTO 15005KT 10SM CLR 27/06 A2985 RMK AO2 SLP105 T02720056
Loading
Personal Weather Stations






























Interactive Weather Map
Tropical Storm Tracking
New forecast layout! Learn more

10-Day Weather Forecast

Advertisements
Track Severe Weather on mobile